sensor_id;sensor_type;location;lat;lon;timestamp;temperature;humidity
6520;DHT22;3293;51.690;5.982;2022-07-04T00:01:28;14.00;99.90
6520;DHT22;3293;51.690;5.982;2022-07-04T00:06:27;14.00;99.90
6520;DHT22;3293;51.690;5.982;2022-07-04T00:11:27;13.90;99.90
6520;DHT22;3293;51.690;5.982;2022-07-04T00:16:27;13.70;99.90
6520;DHT22;3293;51.690;5.982;2022-07-04T00:21:27;13.60;99.90
6520;DHT22;3293;51.690;5.982;2022-07-04T00:26:27;13.50;99.90
6520;DHT22;3293;51.690;5.982;2022-07-04T00:31:27;13.50;99.90
6520;DHT22;3293;51.690;5.982;2022-07-04T00:36:27;13.40;99.90
6520;DHT22;3293;51.690;5.982;2022-07-04T00:41:27;13.30;99.90
6520;DHT22;3293;51.690;5.982;2022-07-04T00:46:27;13.30;99.90
6520;DHT22;3293;51.690;5.982;2022-07-04T00:51:27;13.20;99.90
6520;DHT22;3293;51.690;5.982;2022-07-04T00:56:27;13.20;99.90
6520;DHT22;3293;51.690;5.982;2022-07-04T01:01:27;13.10;99.90
6520;DHT22;3293;51.690;5.982;2022-07-04T01:06:27;13.10;99.90
6520;DHT22;3293;51.690;5.982;2022-07-04T01:11:27;13.00;99.90
6520;DHT22;3293;51.690;5.982;2022-07-04T01:16:27;13.00;99.90
6520;DHT22;3293;51.690;5.982;2022-07-04T01:21:27;12.90;99.90
6520;DHT22;3293;51.690;5.982;2022-07-04T01:26:28;12.80;99.90
6520;DHT22;3293;51.690;5.982;2022-07-04T01:31:28;12.80;99.90
6520;DHT22;3293;51.690;5.982;2022-07-04T01:36:28;12.70;99.90
6520;DHT22;3293;51.690;5.982;2022-07-04T01:41:33;12.70;99.90
6520;DHT22;3293;51.690;5.982;2022-07-04T01:46:33;12.70;99.90
6520;DHT22;3293;51.690;5.982;2022-07-04T01:51:33;12.70;99.90
6520;DHT22;3293;51.690;5.982;2022-07-04T01:56:33;12.60;99.90
6520;DHT22;3293;51.690;5.982;2022-07-04T02:01:33;12.60;99.90
6520;DHT22;3293;51.690;5.982;2022-07-04T02:06:34;12.50;99.90
6520;DHT22;3293;51.690;5.982;2022-07-04T02:11:34;12.50;99.90
6520;DHT22;3293;51.690;5.982;2022-07-04T02:16:53;12.40;99.90
6520;DHT22;3293;51.690;5.982;2022-07-04T02:21:53;12.30;99.90
6520;DHT22;3293;51.690;5.982;2022-07-04T02:26:53;12.30;99.90
6520;DHT22;3293;51.690;5.982;2022-07-04T02:31:53;12.20;99.90
6520;DHT22;3293;51.690;5.982;2022-07-04T02:36:53;12.10;99.90
6520;DHT22;3293;51.690;5.982;2022-07-04T02:41:53;12.00;99.90
6520;DHT22;3293;51.690;5.982;2022-07-04T02:46:53;11.90;99.90
6520;DHT22;3293;51.690;5.982;2022-07-04T02:51:53;11.90;99.90
6520;DHT22;3293;51.690;5.982;2022-07-04T02:56:53;11.80;99.90
6520;DHT22;3293;51.690;5.982;2022-07-04T03:01:52;11.80;99.90
6520;DHT22;3293;51.690;5.982;2022-07-04T03:06:52;11.70;99.90
6520;DHT22;3293;51.690;5.982;2022-07-04T03:11:53;11.70;99.90
6520;DHT22;3293;51.690;5.982;2022-07-04T03:16:53;11.70;99.90
6520;DHT22;3293;51.690;5.982;2022-07-04T03:21:52;11.60;99.90
6520;DHT22;3293;51.690;5.982;2022-07-04T03:26:52;11.50;99.90
6520;DHT22;3293;51.690;5.982;2022-07-04T03:31:53;11.50;99.90
6520;DHT22;3293;51.690;5.982;2022-07-04T03:36:53;11.40;99.90
6520;DHT22;3293;51.690;5.982;2022-07-04T03:41:53;11.40;99.90
6520;DHT22;3293;51.690;5.982;2022-07-04T03:46:53;11.50;99.90
6520;DHT22;3293;51.690;5.982;2022-07-04T03:51:53;11.50;99.90
6520;DHT22;3293;51.690;5.982;2022-07-04T03:56:53;11.60;99.90
6520;DHT22;3293;51.690;5.982;2022-07-04T04:01:52;11.70;99.90
6520;DHT22;3293;51.690;5.982;2022-07-04T04:06:52;11.80;99.90
6520;DHT22;3293;51.690;5.982;2022-07-04T04:11:53;11.90;99.90
6520;DHT22;3293;51.690;5.982;2022-07-04T04:16:53;12.00;99.90
6520;DHT22;3293;51.690;5.982;2022-07-04T04:21:53;12.10;99.90
6520;DHT22;3293;51.690;5.982;2022-07-04T04:26:53;12.20;99.90
6520;DHT22;3293;51.690;5.982;2022-07-04T04:31:53;12.30;99.90
6520;DHT22;3293;51.690;5.982;2022-07-04T04:36:53;12.80;99.90
6520;DHT22;3293;51.690;5.982;2022-07-04T04:41:53;13.20;99.90
6520;DHT22;3293;51.690;5.982;2022-07-04T04:46:53;13.30;99.90
6520;DHT22;3293;51.690;5.982;2022-07-04T04:51:52;13.40;99.90
6520;DHT22;3293;51.690;5.982;2022-07-04T04:56:52;14.00;99.90
6520;DHT22;3293;51.690;5.982;2022-07-04T05:01:52;15.10;99.90
6520;DHT22;3293;51.690;5.982;2022-07-04T05:06:52;17.10;99.90
6520;DHT22;3293;51.690;5.982;2022-07-04T05:11:52;19.10;99.90
6520;DHT22;3293;51.690;5.982;2022-07-04T05:16:52;21.20;97.80
6520;DHT22;3293;51.690;5.982;2022-07-04T05:21:52;22.70;87.50
6520;DHT22;3293;51.690;5.982;2022-07-04T05:26:52;23.50;76.90
6520;DHT22;3293;51.690;5.982;2022-07-04T05:31:52;24.90;68.70
6520;DHT22;3293;51.690;5.982;2022-07-04T05:36:52;26.20;59.30
6520;DHT22;3293;51.690;5.982;2022-07-04T05:41:54;27.20;54.30
6520;DHT22;3293;51.690;5.982;2022-07-04T05:46:54;27.90;48.60
6520;DHT22;3293;51.690;5.982;2022-07-04T05:51:54;28.10;47.00
6520;DHT22;3293;51.690;5.982;2022-07-04T05:56:54;28.70;45.60
6520;DHT22;3293;51.690;5.982;2022-07-04T06:01:54;29.50;43.50
6520;DHT22;3293;51.690;5.982;2022-07-04T06:06:54;29.50;42.80
6520;DHT22;3293;51.690;5.982;2022-07-04T06:11:54;29.90;41.00
6520;DHT22;3293;51.690;5.982;2022-07-04T06:16:54;29.80;41.20
6520;DHT22;3293;51.690;5.982;2022-07-04T06:21:54;29.70;41.80
6520;DHT22;3293;51.690;5.982;2022-07-04T06:26:54;30.40;39.50
6520;DHT22;3293;51.690;5.982;2022-07-04T06:31:54;28.20;45.80
6520;DHT22;3293;51.690;5.982;2022-07-04T06:36:54;28.70;43.80
6520;DHT22;3293;51.690;5.982;2022-07-04T06:41:54;29.80;42.60
6520;DHT22;3293;51.690;5.982;2022-07-04T06:46:54;29.40;43.00
6520;DHT22;3293;51.690;5.982;2022-07-04T06:51:54;29.40;42.60
6520;DHT22;3293;51.690;5.982;2022-07-04T06:56:54;28.80;42.70
6520;DHT22;3293;51.690;5.982;2022-07-04T07:01:53;29.20;42.40
6520;DHT22;3293;51.690;5.982;2022-07-04T07:06:53;29.50;42.00
6520;DHT22;3293;51.690;5.982;2022-07-04T07:11:53;30.10;40.10
6520;DHT22;3293;51.690;5.982;2022-07-04T07:16:53;30.90;38.90
6520;DHT22;3293;51.690;5.982;2022-07-04T07:21:53;31.10;37.20
6520;DHT22;3293;51.690;5.982;2022-07-04T07:26:53;30.50;37.80
6520;DHT22;3293;51.690;5.982;2022-07-04T07:31:53;30.80;38.60
6520;DHT22;3293;51.690;5.982;2022-07-04T07:36:53;30.30;39.40
6520;DHT22;3293;51.690;5.982;2022-07-04T07:41:54;30.60;38.60
6520;DHT22;3293;51.690;5.982;2022-07-04T07:46:53;28.80;43.00
6520;DHT22;3293;51.690;5.982;2022-07-04T07:51:53;29.00;43.30
6520;DHT22;3293;51.690;5.982;2022-07-04T07:56:55;28.80;43.30
6520;DHT22;3293;51.690;5.982;2022-07-04T08:01:55;29.30;42.10
6520;DHT22;3293;51.690;5.982;2022-07-04T08:06:55;29.20;42.10
6520;DHT22;3293;51.690;5.982;2022-07-04T08:11:55;30.60;40.70
6520;DHT22;3293;51.690;5.982;2022-07-04T08:16:56;30.90;38.20
6520;DHT22;3293;51.690;5.982;2022-07-04T08:21:56;30.70;40.00
6520;DHT22;3293;51.690;5.982;2022-07-04T08:26:55;31.00;38.30
6520;DHT22;3293;51.690;5.982;2022-07-04T08:31:55;30.90;37.90
6520;DHT22;3293;51.690;5.982;2022-07-04T08:36:55;30.40;40.70
6520;DHT22;3293;51.690;5.982;2022-07-04T08:42:01;30.90;38.90
6520;DHT22;3293;51.690;5.982;2022-07-04T08:47:02;31.60;37.20
6520;DHT22;3293;51.690;5.982;2022-07-04T08:52:06;32.10;36.20
6520;DHT22;3293;51.690;5.982;2022-07-04T08:57:08;31.40;38.20
6520;DHT22;3293;51.690;5.982;2022-07-04T09:02:28;30.80;37.90
6520;DHT22;3293;51.690;5.982;2022-07-04T09:07:28;30.00;40.40
6520;DHT22;3293;51.690;5.982;2022-07-04T09:12:28;29.60;39.90
6520;DHT22;3293;51.690;5.982;2022-07-04T09:17:28;29.20;44.10
6520;DHT22;3293;51.690;5.982;2022-07-04T09:22:28;30.80;39.40
6520;DHT22;3293;51.690;5.982;2022-07-04T09:27:33;29.70;40.20
6520;DHT22;3293;51.690;5.982;2022-07-04T09:32:41;29.60;40.50
6520;DHT22;3293;51.690;5.982;2022-07-04T09:37:44;30.60;37.50
6520;DHT22;3293;51.690;5.982;2022-07-04T09:42:46;30.90;39.00
6520;DHT22;3293;51.690;5.982;2022-07-04T09:47:47;32.00;34.50
6520;DHT22;3293;51.690;5.982;2022-07-04T09:52:50;31.80;36.60
6520;DHT22;3293;51.690;5.982;2022-07-04T09:57:51;31.90;36.20
6520;DHT22;3293;51.690;5.982;2022-07-04T10:02:52;32.80;34.60
6520;DHT22;3293;51.690;5.982;2022-07-04T10:07:54;31.30;34.50
6520;DHT22;3293;51.690;5.982;2022-07-04T10:12:57;29.90;37.40
6520;DHT22;3293;51.690;5.982;2022-07-04T10:17:58;29.70;37.80
6520;DHT22;3293;51.690;5.982;2022-07-04T10:22:59;28.50;42.20
6520;DHT22;3293;51.690;5.982;2022-07-04T10:27:59;27.70;42.40
6520;DHT22;3293;51.690;5.982;2022-07-04T10:33:02;26.70;47.50
6520;DHT22;3293;51.690;5.982;2022-07-04T10:38:04;26.50;45.30
6520;DHT22;3293;51.690;5.982;2022-07-04T10:48:36;26.50;45.40
6520;DHT22;3293;51.690;5.982;2022-07-04T10:53:58;26.60;48.20
6520;DHT22;3293;51.690;5.982;2022-07-04T10:59:07;26.50;45.60
6520;DHT22;3293;51.690;5.982;2022-07-04T11:04:07;26.00;47.10
6520;DHT22;3293;51.690;5.982;2022-07-04T11:14:44;26.40;48.50
6520;DHT22;3293;51.690;5.982;2022-07-04T11:19:44;26.50;49.80
6520;DHT22;3293;51.690;5.982;2022-07-04T11:24:45;26.40;46.30
6520;DHT22;3293;51.690;5.982;2022-07-04T11:29:55;26.10;47.50
6520;DHT22;3293;51.690;5.982;2022-07-04T11:34:55;26.10;47.50
6520;DHT22;3293;51.690;5.982;2022-07-04T11:39:56;25.90;49.00
6520;DHT22;3293;51.690;5.982;2022-07-04T11:45:21;25.60;52.70
6520;DHT22;3293;51.690;5.982;2022-07-04T11:50:21;25.80;50.90
6520;DHT22;3293;51.690;5.982;2022-07-04T11:55:21;25.80;50.90
6520;DHT22;3293;51.690;5.982;2022-07-04T12:00:25;24.80;54.70
6520;DHT22;3293;51.690;5.982;2022-07-04T12:05:26;25.00;56.70
6520;DHT22;3293;51.690;5.982;2022-07-04T12:10:26;25.30;54.20
6520;DHT22;3293;51.690;5.982;2022-07-04T12:15:36;25.40;53.10
6520;DHT22;3293;51.690;5.982;2022-07-04T12:20:36;25.40;53.40
6520;DHT22;3293;51.690;5.982;2022-07-04T12:25:38;25.60;54.30
6520;DHT22;3293;51.690;5.982;2022-07-04T12:30:47;25.20;51.80
6520;DHT22;3293;51.690;5.982;2022-07-04T12:35:49;25.00;52.90
6520;DHT22;3293;51.690;5.982;2022-07-04T12:40:51;25.20;54.30
6520;DHT22;3293;51.690;5.982;2022-07-04T12:45:55;25.20;46.70
6520;DHT22;3293;51.690;5.982;2022-07-04T12:51:09;25.30;48.50
6520;DHT22;3293;51.690;5.982;2022-07-04T12:56:10;25.40;50.70
6520;DHT22;3293;51.690;5.982;2022-07-04T13:01:10;25.50;47.60
6520;DHT22;3293;51.690;5.982;2022-07-04T13:06:10;25.70;46.60
6520;DHT22;3293;51.690;5.982;2022-07-04T13:11:10;25.70;48.80
6520;DHT22;3293;51.690;5.982;2022-07-04T13:16:28;25.80;46.80
6520;DHT22;3293;51.690;5.982;2022-07-04T13:21:28;25.50;49.30
6520;DHT22;3293;51.690;5.982;2022-07-04T13:26:28;25.10;52.80
6520;DHT22;3293;51.690;5.982;2022-07-04T13:31:30;24.80;52.00
6520;DHT22;3293;51.690;5.982;2022-07-04T13:36:30;24.80;51.80
6520;DHT22;3293;51.690;5.982;2022-07-04T13:41:31;24.70;55.20
6520;DHT22;3293;51.690;5.982;2022-07-04T13:46:32;24.60;53.30
6520;DHT22;3293;51.690;5.982;2022-07-04T13:51:35;24.80;53.60
6520;DHT22;3293;51.690;5.982;2022-07-04T13:56:36;24.80;51.00
6520;DHT22;3293;51.690;5.982;2022-07-04T14:01:36;24.90;48.40
6520;DHT22;3293;51.690;5.982;2022-07-04T14:06:36;24.90;51.20
6520;DHT22;3293;51.690;5.982;2022-07-04T14:11:36;25.10;53.90
6520;DHT22;3293;51.690;5.982;2022-07-04T14:16:36;25.10;51.90
6520;DHT22;3293;51.690;5.982;2022-07-04T14:21:36;25.30;51.60
6520;DHT22;3293;51.690;5.982;2022-07-04T14:26:36;25.30;47.40
6520;DHT22;3293;51.690;5.982;2022-07-04T14:31:36;24.90;48.70
6520;DHT22;3293;51.690;5.982;2022-07-04T14:36:37;24.70;52.30
6520;DHT22;3293;51.690;5.982;2022-07-04T14:41:37;24.90;50.90
6520;DHT22;3293;51.690;5.982;2022-07-04T14:46:36;25.10;50.30
6520;DHT22;3293;51.690;5.982;2022-07-04T14:51:37;25.00;51.10
6520;DHT22;3293;51.690;5.982;2022-07-04T14:56:39;24.80;51.30
6520;DHT22;3293;51.690;5.982;2022-07-04T15:01:39;24.70;49.80
6520;DHT22;3293;51.690;5.982;2022-07-04T15:06:39;24.80;50.00
6520;DHT22;3293;51.690;5.982;2022-07-04T15:11:39;24.60;50.60
6520;DHT22;3293;51.690;5.982;2022-07-04T15:16:39;24.30;51.40
6520;DHT22;3293;51.690;5.982;2022-07-04T15:21:39;24.50;51.00
6520;DHT22;3293;51.690;5.982;2022-07-04T15:26:58;24.50;51.20
6520;DHT22;3293;51.690;5.982;2022-07-04T15:31:58;24.60;50.50
6520;DHT22;3293;51.690;5.982;2022-07-04T15:36:58;24.70;50.50
6520;DHT22;3293;51.690;5.982;2022-07-04T15:41:58;24.70;51.20
6520;DHT22;3293;51.690;5.982;2022-07-04T15:46:58;24.50;51.20
6520;DHT22;3293;51.690;5.982;2022-07-04T15:52:07;24.30;52.70
6520;DHT22;3293;51.690;5.982;2022-07-04T15:57:08;24.20;51.70
6520;DHT22;3293;51.690;5.982;2022-07-04T16:02:08;24.00;52.40
6520;DHT22;3293;51.690;5.982;2022-07-04T16:07:08;24.00;52.10
6520;DHT22;3293;51.690;5.982;2022-07-04T16:12:08;24.20;52.70
6520;DHT22;3293;51.690;5.982;2022-07-04T16:17:08;24.70;50.70
6520;DHT22;3293;51.690;5.982;2022-07-04T16:22:08;24.60;49.90
6520;DHT22;3293;51.690;5.982;2022-07-04T16:27:08;24.40;52.40
6520;DHT22;3293;51.690;5.982;2022-07-04T16:32:08;24.50;51.60
6520;DHT22;3293;51.690;5.982;2022-07-04T16:37:08;24.80;51.60
6520;DHT22;3293;51.690;5.982;2022-07-04T16:42:08;24.90;51.70
6520;DHT22;3293;51.690;5.982;2022-07-04T16:47:08;24.80;50.30
6520;DHT22;3293;51.690;5.982;2022-07-04T16:52:08;24.50;52.40
6520;DHT22;3293;51.690;5.982;2022-07-04T16:57:08;24.30;53.80
6520;DHT22;3293;51.690;5.982;2022-07-04T17:02:08;24.00;54.90
6520;DHT22;3293;51.690;5.982;2022-07-04T17:07:08;23.80;56.00
6520;DHT22;3293;51.690;5.982;2022-07-04T17:12:08;23.50;56.40
6520;DHT22;3293;51.690;5.982;2022-07-04T17:17:08;23.40;57.80
6520;DHT22;3293;51.690;5.982;2022-07-04T17:22:09;23.40;58.10
6520;DHT22;3293;51.690;5.982;2022-07-04T17:27:11;23.40;58.80
6520;DHT22;3293;51.690;5.982;2022-07-04T17:32:11;23.20;59.50
6520;DHT22;3293;51.690;5.982;2022-07-04T17:37:11;23.20;59.80
6520;DHT22;3293;51.690;5.982;2022-07-04T17:42:12;23.10;60.20
6520;DHT22;3293;51.690;5.982;2022-07-04T17:47:12;23.10;60.70
6520;DHT22;3293;51.690;5.982;2022-07-04T17:52:13;23.10;60.10
6520;DHT22;3293;51.690;5.982;2022-07-04T17:57:13;23.00;60.00
6520;DHT22;3293;51.690;5.982;2022-07-04T18:02:13;22.90;60.30
6520;DHT22;3293;51.690;5.982;2022-07-04T18:07:13;22.80;60.50
6520;DHT22;3293;51.690;5.982;2022-07-04T18:12:14;22.60;62.70
6520;DHT22;3293;51.690;5.982;2022-07-04T18:17:15;22.50;62.80
6520;DHT22;3293;51.690;5.982;2022-07-04T18:22:15;22.30;64.40
6520;DHT22;3293;51.690;5.982;2022-07-04T18:27:15;22.10;63.60
6520;DHT22;3293;51.690;5.982;2022-07-04T18:32:15;22.00;65.10
6520;DHT22;3293;51.690;5.982;2022-07-04T18:37:15;22.10;64.40
6520;DHT22;3293;51.690;5.982;2022-07-04T18:42:15;22.00;66.00
6520;DHT22;3293;51.690;5.982;2022-07-04T18:47:34;22.00;66.60
6520;DHT22;3293;51.690;5.982;2022-07-04T18:52:34;21.90;67.10
6520;DHT22;3293;51.690;5.982;2022-07-04T18:57:34;21.80;68.90
6520;DHT22;3293;51.690;5.982;2022-07-04T19:02:34;21.60;70.10
6520;DHT22;3293;51.690;5.982;2022-07-04T19:07:34;21.50;72.10
6520;DHT22;3293;51.690;5.982;2022-07-04T19:12:34;21.30;73.40
6520;DHT22;3293;51.690;5.982;2022-07-04T19:17:34;21.20;75.70
6520;DHT22;3293;51.690;5.982;2022-07-04T19:22:34;21.10;74.50
6520;DHT22;3293;51.690;5.982;2022-07-04T19:27:34;20.90;74.40
6520;DHT22;3293;51.690;5.982;2022-07-04T19:32:35;20.80;75.40
6520;DHT22;3293;51.690;5.982;2022-07-04T19:37:36;20.70;76.70
6520;DHT22;3293;51.690;5.982;2022-07-04T19:42:38;20.50;76.10
6520;DHT22;3293;51.690;5.982;2022-07-04T19:47:38;20.30;77.90
6520;DHT22;3293;51.690;5.982;2022-07-04T19:52:38;20.10;79.60
6520;DHT22;3293;51.690;5.982;2022-07-04T19:57:41;20.00;81.40
6520;DHT22;3293;51.690;5.982;2022-07-04T20:02:43;19.90;83.60
6520;DHT22;3293;51.690;5.982;2022-07-04T20:07:44;19.80;86.00
6520;DHT22;3293;51.690;5.982;2022-07-04T20:12:45;19.60;89.00
6520;DHT22;3293;51.690;5.982;2022-07-04T20:17:45;19.40;90.70
6520;DHT22;3293;51.690;5.982;2022-07-04T20:22:45;19.20;91.70
6520;DHT22;3293;51.690;5.982;2022-07-04T20:27:46;19.10;92.80
6520;DHT22;3293;51.690;5.982;2022-07-04T20:32:47;19.10;93.20
6520;DHT22;3293;51.690;5.982;2022-07-04T20:37:47;19.00;94.20
6520;DHT22;3293;51.690;5.982;2022-07-04T20:42:48;18.90;93.90
6520;DHT22;3293;51.690;5.982;2022-07-04T20:47:48;18.90;93.80
6520;DHT22;3293;51.690;5.982;2022-07-04T20:52:48;19.00;94.00
6520;DHT22;3293;51.690;5.982;2022-07-04T20:57:47;18.90;93.90
6520;DHT22;3293;51.690;5.982;2022-07-04T21:02:47;18.90;93.90
6520;DHT22;3293;51.690;5.982;2022-07-04T21:07:48;18.90;94.20
6520;DHT22;3293;51.690;5.982;2022-07-04T21:12:49;18.90;95.20
6520;DHT22;3293;51.690;5.982;2022-07-04T21:17:52;18.80;95.80
6520;DHT22;3293;51.690;5.982;2022-07-04T21:22:52;18.70;95.90
6520;DHT22;3293;51.690;5.982;2022-07-04T21:27:52;18.60;96.10
6520;DHT22;3293;51.690;5.982;2022-07-04T21:32:53;18.60;97.30
6520;DHT22;3293;51.690;5.982;2022-07-04T21:37:54;18.50;96.80
6520;DHT22;3293;51.690;5.982;2022-07-04T21:42:56;18.50;96.50
6520;DHT22;3293;51.690;5.982;2022-07-04T21:47:56;18.50;96.10
6520;DHT22;3293;51.690;5.982;2022-07-04T21:53:02;18.40;95.40
6520;DHT22;3293;51.690;5.982;2022-07-04T21:58:02;18.40;95.40
6520;DHT22;3293;51.690;5.982;2022-07-04T22:03:02;18.40;94.70
6520;DHT22;3293;51.690;5.982;2022-07-04T22:08:03;18.30;94.10
6520;DHT22;3293;51.690;5.982;2022-07-04T22:13:03;18.30;94.90
6520;DHT22;3293;51.690;5.982;2022-07-04T22:18:03;18.30;94.70
6520;DHT22;3293;51.690;5.982;2022-07-04T22:23:03;18.30;94.80
6520;DHT22;3293;51.690;5.982;2022-07-04T22:28:03;18.20;94.80
6520;DHT22;3293;51.690;5.982;2022-07-04T22:33:03;18.20;94.50
6520;DHT22;3293;51.690;5.982;2022-07-04T22:38:03;18.20;94.40
6520;DHT22;3293;51.690;5.982;2022-07-04T22:43:03;18.10;94.60
6520;DHT22;3293;51.690;5.982;2022-07-04T22:48:04;17.90;94.90
6520;DHT22;3293;51.690;5.982;2022-07-04T22:53:04;17.80;95.10
6520;DHT22;3293;51.690;5.982;2022-07-04T22:58:24;17.70;96.00
6520;DHT22;3293;51.690;5.982;2022-07-04T23:03:24;17.50;96.70
6520;DHT22;3293;51.690;5.982;2022-07-04T23:08:24;17.30;97.50
6520;DHT22;3293;51.690;5.982;2022-07-04T23:13:25;17.20;98.10
6520;DHT22;3293;51.690;5.982;2022-07-04T23:18:25;17.00;98.90
6520;DHT22;3293;51.690;5.982;2022-07-04T23:23:24;17.00;99.00
6520;DHT22;3293;51.690;5.982;2022-07-04T23:28:24;16.90;99.40
6520;DHT22;3293;51.690;5.982;2022-07-04T23:33:24;16.80;99.90
6520;DHT22;3293;51.690;5.982;2022-07-04T23:38:24;16.70;99.90
6520;DHT22;3293;51.690;5.982;2022-07-04T23:43:24;16.50;99.90
6520;DHT22;3293;51.690;5.982;2022-07-04T23:48:24;16.40;99.90
6520;DHT22;3293;51.690;5.982;2022-07-04T23:53:24;16.30;99.90
6520;DHT22;3293;51.690;5.982;2022-07-04T23:58:24;16.30;99.90
